• Join FlightAware (Why Join?)
  • Login
  • US Flag 
06:00AM EST


 

Airport Tracker/Info


-or-


 

Live Flight TrackerFlight Track Log ✈ VH-SGQ ✈ 07-Nov-2013 ✈ YTWB - YBBN / BNE

Flight Track Log - Related Links

Times and Time Zones

All times are in EST time to prevent confusion due to time zone crossing. See the VH-SGQ flight status page for this flight to view local times or setup timezone preferences in your user account.

Time Position Orientation Groundspeed Altitude Reporting Facility
EST Latitude Longitude Course Direction KTS MPH feet Rate Location/Type
12:31AM -27.5543 151.9417 92° East 139 160 2,800  Level Aus ATC (RADAR)
12:31AM -27.5554 151.9729 92° East 159 183 4,500 2,460 Climbing Aus ATC (RADAR)
12:32AM -27.5305 151.9933 36° Northeast 143 165 6,300 2,160 Climbing Aus ATC (RADAR)
12:32AM -27.5113 152.0079 34° Northeast 142 163 7,400 2,100 Climbing Aus ATC (RADAR)
12:33AM -27.4805 152.0292 32° Northeast 171 197 9,100 1,320 Climbing Aus ATC (RADAR)
12:34AM -27.4633 152.0453 40° Northeast 188 216 9,000 -60 Descending Aus ATC (RADAR)
12:35AM -27.4145 152.1195 54° Northeast 236 272 9,000  Level Aus ATC (RADAR)
12:35AM -27.3980 152.1460 55° Northeast 243 280 9,000  Level Aus ATC (RADAR)
12:36AM -27.3776 152.1786 55° Northeast 250 288 9,000  Level Aus ATC (RADAR)
12:36AM -27.3546 152.2165 56° Northeast 250 288 9,000  Level Aus ATC (RADAR)
12:37AM -27.3247 152.2655 55° Northeast 251 289 9,000  Level Aus ATC (RADAR)
12:38AM -27.3011 152.3035 55° Northeast 251 289 9,000  Level Aus ATC (RADAR)
12:38AM -27.2704 152.3526 55° Northeast 254 292 9,000  Level Aus ATC (RADAR)
12:39AM -27.2533 152.3800 55° Northeast 254 292 9,000  Level Aus ATC (RADAR)
12:40AM -27.2493 152.4670 87° East 244 281 9,000  Level Aus ATC (RADAR)
12:40AM -27.2546 152.4981 101° East 241 277 9,000  Level Aus ATC (RADAR)
12:41AM -27.2623 152.5425 101° East 243 280 9,000  Level Aus ATC (RADAR)
12:42AM -27.2745 152.6119 101° East 244 281 9,000  Level Aus ATC (RADAR)
12:43AM -27.2822 152.6555 101° East 241 277 9,000  Level Aus ATC (RADAR)
12:43AM -27.2919 152.7116 101° East 240 276 9,000  Level Aus ATC (RADAR)
12:44AM -27.2996 152.7552 101° East 240 276 9,000 -840 Level Aus ATC (RADAR)
12:45AM -27.3178 152.8588 101° East 252 290 7,400 -1,320 Descending Aus ATC (RADAR)
12:46AM -27.3231 152.8911 101° East 247 284 6,800 -1,320 Descending Aus ATC (RADAR)
12:46AM -27.3505 152.9299 128° Southeast 232 267 6,000 -1,380 Descending Aus ATC (RADAR)
12:47AM -27.3807 152.9693 131° Southeast 217 250 4,900 -1,680 Descending Aus ATC (RADAR)
12:48AM -27.4055 153.0001 132° Southeast 220 253 3,800 -1,740 Descending Aus ATC (RADAR)
12:48AM -27.4363 153.0354 135° Southeast 203 234 2,600 -1,380 Descending Aus ATC (RADAR)
12:49AM -27.4509 153.0522 134° Southeast 183 211 2,200 -1,080 Descending Aus ATC (RADAR)
12:50AM -27.4406 153.0976 76° East 155 178 900 -1,080 Descending Aus ATC (RADAR)
12:50AM -27.4240 153.1068 26° Northeast 138 159 500 -660 Descending Aus ATC (RADAR)
12:51AM -27.4146 153.1122 27° Northeast 123 142 400 -300 Descending Aus ATC (RADAR)
12:51AM -27.3995 153.1193 22° Northeast 105 121 -720 Descending Aus ATC (RADAR)
12:52AM -27.3943 153.1228 31° Northeast 99 114  Level Aus ATC (RADAR)